1893 Hurricane NOT_NAMED (1893226N10310)


IBTrACS version v04r00. Visit IBTrACS website for data access.
Please direct all questions to the IBTrACS Q and A forum

Storm track - Intensity - Wind Radii - Intensity Data - Source Data - All data

Summary Information

Storm ID 1893226N10310
Start Aug 13 12Z
Landfall Aug 17 03Z, Aug 22 06Z, Aug 22 15Z
Max Intensity 105 kt (Aug 18 06Z), 958 mb (Aug 20 06Z)
End Aug 25 18Z
ATCF IDs AL031893
Track status Best track data.

Storm track plot

Map of storm track

Intensity plots

Map of storm track

Radial wind information

No radial wind information for this storm


Position and Intensity Table

BASIN ISO_TIME_________ NATURE LAT LON WMO WIND USA WIND MLC WIND MLC PRES
degrees north degrees east kts kts kts mb
NA 1893-08-13 12:00:00 TS 9.60 -50.50 35 35 35
NA 15:00:00 TS 9.96 -50.99 37 37
NA 18:00:00 TS 10.30 -51.50 40 40 40
NA 21:00:00 TS 10.60 -52.04 40 40
NA 1893-08-14 00:00:00 TS 10.90 -52.60 40 40 40
NA 03:00:00 TS 11.25 -53.15 42 42
NA 06:00:00 TS 11.60 -53.70 45 45 45
NA 09:00:00 TS 11.90 -54.24 47 47
NA 12:00:00 TS 12.20 -54.80 50 50 50
NA 15:00:00 TS 12.55 -55.39 52 52
NA 18:00:00 TS 12.90 -56.00 55 55 55
NA 21:00:00 TS 13.20 -56.65 57 57
NA 1893-08-15 00:00:00 TS 13.50 -57.30 60 60 60
NA 03:00:00 TS 13.85 -57.91 62 60
NA 06:00:00 TS 14.20 -58.50 65 65 60
NA 09:00:00 TS 14.51 -59.11 65 62
NA 12:00:00 TS 14.80 -59.70 65 65 65
NA 15:00:00 TS 15.10 -60.27 67 65
NA 18:00:00 TS 15.40 -60.80 70 70 65
NA 21:00:00 TS 15.70 -61.30 72 65
NA 1893-08-16 00:00:00 TS 16.00 -61.80 75 75 65
NA 03:00:00 TS 16.30 -62.35 77 72
NA 06:00:00 TS 16.60 -62.90 80 80 80
NA 09:00:00 TS 16.90 -63.42 85 85
NA 12:00:00 TS 17.17 -63.90 90 90 90
NA 15:00:00 TS 17.38 -64.36 95 95
NA 18:00:00 TS 17.57 -64.80 100 100 100
NA 21:00:00 TS 17.73 -65.23 100 100
NA 1893-08-17 00:00:00 TS 17.93 -65.70 100 100 100
NA 03:00:00 TS 18.23 -66.26 95 95
NA 06:00:00 TS 18.57 -66.83 90 90 90
NA 09:00:00 TS 18.88 -67.37 92 92
NA 12:00:00 TS 19.20 -67.87 95 95 95
NA 15:00:00 TS 19.52 -68.31 97 95
NA 18:00:00 TS 19.83 -68.70 100 100 95
NA 21:00:00 TS 20.14 -69.08 100 95
NA 1893-08-18 00:00:00 TS 20.47 -69.43 100 100 95
NA 03:00:00 TS 20.80 -69.75 102 95
NA 06:00:00 TS 21.17 -70.07 105 105 95
NA 09:00:00 TS 21.57 -70.41 105 97
NA 12:00:00 TS 21.97 -70.77 105 105 100
NA 15:00:00 TS 22.32 -71.15 105 100
NA 18:00:00 TS 22.67 -71.53 105 105 100
NA 21:00:00 TS 23.01 -71.87 105 100
NA 1893-08-19 00:00:00 TS 23.37 -72.20 105 105 100
NA 03:00:00 TS 23.75 -72.57 105 102
NA 06:00:00 TS 24.13 -72.93 105 105 105
NA 09:00:00 TS 24.47 -73.27 105 105
NA 12:00:00 TS 24.87 -73.60 105 105 105
NA 15:00:00 TS 25.38 -73.94 105 105
NA 18:00:00 TS 25.97 -74.23 105 105 105
NA 21:00:00 TS 26.53 -74.45 105 105
NA 1893-08-20 00:00:00 TS 27.13 -74.60 105 105 105
NA 03:00:00 TS 27.77 -74.70 105 105
NA 06:00:00 TS 28.43 -74.73 105 105 105 958
NA 09:00:00 TS 29.06 -74.72 102 102
NA 12:00:00 TS 29.73 -74.63 100 100 100
NA 15:00:00 TS 30.51 -74.52 97 97
NA 18:00:00 TS 31.37 -74.30 95 95 95
NA 21:00:00 TS 32.23 -73.93 92 92
NA 1893-08-21 00:00:00 TS 33.13 -73.43 90 90 90
NA 03:00:00 TS 34.07 -72.89 90 90
NA 06:00:00 TS 35.03 -72.27 90 90 90
NA 09:00:00 TS 36.01 -71.61 90 90
NA 12:00:00 TS 37.00 -70.87 90 90 90
NA 15:00:00 TS 37.94 -70.08 85 85
NA 18:00:00 TS 39.00 -69.10 80 80 80
NA 21:00:00 TS 40.34 -67.78 75 75
NA 1893-08-22 00:00:00 TS 41.80 -66.30 70 70 70
NA 03:00:00 TS 43.21 -64.93 65 65
NA 06:00:00 MX 44.63 -63.43 60 60 60
NA 09:00:00 MX 46.11 -61.60 55 55
NA 12:00:00 MX 47.43 -59.63 50 50 50
NA 15:00:00 MX 48.43 -57.66 50 50
NA 18:00:00 ET 49.20 -55.87 50 50 50
NA 21:00:00 ET 49.87 -54.46 50 50
NA 1893-08-23 00:00:00 ET 50.47 -53.17 50 50 50
NA 03:00:00 ET 51.18 -51.56 50 50
NA 06:00:00 ET 51.70 -50.03 50 50 50
NA 09:00:00 ET 51.85 -48.97 50 50
NA 12:00:00 ET 51.73 -48.00 50 50 50
NA 15:00:00 ET 51.49 -46.69 50 50
NA 18:00:00 ET 51.13 -45.40 50 50 50
NA 21:00:00 ET 50.80 -44.32 50 50
NA 1893-08-24 00:00:00 ET 50.43 -43.40 50 50 50
NA 03:00:00 ET 50.02 -42.62 50 50
NA 06:00:00 ET 49.63 -41.87 50 50 50
NA 09:00:00 ET 49.28 -40.91 50 50
NA 12:00:00 ET 49.07 -40.00 50 50 50
NA 15:00:00 ET 49.09 -39.32 50 50
NA 18:00:00 ET 49.23 -38.70 50 50 50
NA 21:00:00 ET 49.32 -37.96 50 50
NA 1893-08-25 00:00:00 ET 49.43 -37.23 50 50 50
NA 03:00:00 ET 49.58 -36.62 47 47
NA 06:00:00 ET 49.73 -36.07 45 45 45
NA 09:00:00 ET 49.84 -35.53 42 42
NA 12:00:00 ET 50.00 -35.00 40 40 40
NA 15:00:00 ET 50.27 -34.46 37 37
NA 18:00:00 ET 50.60 -33.90 35 35 35

Source Information

Agency Information
USA hurdat2-1851-2019-042820.txt:Line=7491:UNNAMED
TOKYO
CMA
HKO
NEWDELHI
REUNION
BOM
NADI
WELLINGTON
DS824
TD9636
TD9635
NEUMANN
MLC

All available IBTrACS Data

SEASON BASIN SUBBASIN ISO_TIME_________ NATURE LAT LON WMO WIND WMO AGENCY DIST2LAND LANDFALL IFLAG USA AGENCY USA ATCF_ID USA LAT USA LON USA STATUS USA WIND USA SSHS MLC LAT MLC LON MLC CLASS MLC WIND MLC PRES STORM SPEED STORM DIR
Year degrees north degrees east kts km km degrees north degrees east kts 1 degrees north degrees east kts mb kts degrees
1893 NA NA 1893-08-13 12:00:00 TS 9.60 -50.50 35 hurdat_atl 544 539 O____________O hurdat_atl AL031893 9.60 -50.50 TS 35 0 9.60 -50.50 TS 35 12 307
1893 NA NA 15:00:00 TS 9.96 -50.99 562 558 P____________P AL031893 9.96 -50.99 TS 37 0 9.96 -50.99 TS 37 12 305
1893 NA NA 18:00:00 TS 10.30 -51.50 40 hurdat_atl 574 569 O____________O hurdat_atl AL031893 10.30 -51.50 TS 40 0 10.30 -51.50 TS 40 12 302
1893 NA NA 21:00:00 TS 10.60 -52.04 579 575 P____________P AL031893 10.60 -52.04 TS 40 0 10.60 -52.04 TS 40 12 299
1893 NA NA 1893-08-14 00:00:00 TS 10.90 -52.60 40 hurdat_atl 587 583 O____________O hurdat_atl AL031893 10.90 -52.60 TS 40 0 10.90 -52.60 TS 40 13 301
1893 NA NA 03:00:00 TS 11.25 -53.15 603 603 P____________P AL031893 11.25 -53.15 TS 42 0 11.25 -53.15 TS 42 13 303
1893 NA NA 06:00:00 TS 11.60 -53.70 45 hurdat_atl 640 640 O____________O hurdat_atl AL031893 11.60 -53.70 TS 45 0 11.60 -53.70 TS 45 13 301
1893 NA NA 09:00:00 TS 11.90 -54.24 672 657 P____________P AL031893 11.90 -54.24 TS 47 0 11.90 -54.24 TS 47 12 299
1893 NA NA 12:00:00 TS 12.20 -54.80 50 hurdat_atl 657 639 O____________O hurdat_atl AL031893 12.20 -54.80 TS 50 0 12.20 -54.80 TS 50 13 300
1893 NA NA 15:00:00 TS 12.55 -55.39 639 597 P____________P AL031893 12.55 -55.39 TS 52 0 12.55 -55.39 TS 52 14 301
1893 NA NA 18:00:00 TS 12.90 -56.00 55 hurdat_atl 597 554 O____________O hurdat_atl AL031893 12.90 -56.00 TS 55 0 12.90 -56.00 TS 55 14 298
1893 NA NA 21:00:00 TS 13.20 -56.65 545 510 P____________P AL031893 13.20 -56.65 TS 57 0 13.20 -56.65 TS 57 14 295
1893 NA NA 1893-08-15 00:00:00 TS 13.50 -57.30 60 hurdat_atl 510 483 O____________O hurdat_atl AL031893 13.50 -57.30 TS 60 0 13.50 -57.30 TS 60 14 298
1893 NA NA 03:00:00 TS 13.85 -57.91 483 474 P____________P AL031893 13.85 -57.91 TS 62 0 13.85 -57.91 TS 60 14 301
1893 NA NA 06:00:00 TS 14.20 -58.50 65 hurdat_atl 476 467 O____________O hurdat_atl AL031893 14.20 -58.50 HU 65 1 14.20 -58.50 TS 60 13 299
1893 NA NA 09:00:00 TS 14.51 -59.11 472 468 P____________P AL031893 14.51 -59.11 HU 65 1 14.51 -59.11 TS 62 13 297
1893 NA NA 12:00:00 TS 14.80 -59.70 65 hurdat_atl 480 477 O____________O hurdat_atl AL031893 14.80 -59.70 HU 65 1 14.80 -59.70 HU 65 13 298
1893 NA CS 15:00:00 TS 15.10 -60.27 498 496 P____________P AL031893 15.10 -60.27 HU 67 1 15.10 -60.27 HU 65 12 299
1893 NA CS 18:00:00 TS 15.40 -60.80 70 hurdat_atl 526 526 O____________O hurdat_atl AL031893 15.40 -60.80 HU 70 1 15.40 -60.80 HU 65 12 301
1893 NA CS 21:00:00 TS 15.70 -61.30 536 473 P____________P AL031893 15.70 -61.30 HU 72 1 15.70 -61.30 HU 65 11 302
1893 NA CS 1893-08-16 00:00:00 TS 16.00 -61.80 75 hurdat_atl 473 409 O____________O hurdat_atl AL031893 16.00 -61.80 HU 75 1 16.00 -61.80 HU 65 12 301
1893 NA CS 03:00:00 TS 16.30 -62.35 400 337 P____________P AL031893 16.30 -62.35 HU 77 1 16.31 -62.35 HU 72 12 300
1893 NA CS 06:00:00 TS 16.60 -62.90 80 hurdat_atl 337 274 O____________O hurdat_atl AL031893 16.60 -62.90 HU 80 1 16.60 -62.90 HU 80 12 300
1893 NA CS 09:00:00 TS 16.90 -63.42 274 212 P____________P AL031893 16.91 -63.41 HU 85 2 16.86 -63.43 HU 85 11 301
1893 NA CS 12:00:00 TS 17.17 -63.90 90 hurdat_atl 212 164 O____________O hurdat_atl AL031893 17.20 -63.90 HU 90 2 17.10 -63.90 HU 90 10 298
1893 NA CS 15:00:00 TS 17.38 -64.36 155 108 P____________P AL031893 17.41 -64.40 HU 95 2 17.31 -64.27 HU 95 9 295
1893 NA CS 18:00:00 TS 17.57 -64.80 100 hurdat_atl 108 70 O____________O hurdat_atl AL031893 17.60 -64.90 HU 100 3 17.50 -64.60 MH 100 9 293
1893 NA CS 21:00:00 TS 17.73 -65.23 70 15 P____________P AL031893 17.79 -65.39 HU 100 3 17.61 -64.91 MH 100 9 293
1893 NA CS 1893-08-17 00:00:00 TS 17.93 -65.70 100 hurdat_atl 15 0 O____________O hurdat_atl AL031893 18.00 -65.90 HU 100 3 17.80 -65.30 MH 100 11 297
1893 NA NA 03:00:00 TS 18.23 -66.26 0 0 P____________P AL031893 18.24 -66.45 HU 95 2 18.21 -65.87 MH 95 13 300
1893 NA NA 06:00:00 TS 18.57 -66.83 90 hurdat_atl 22 22 O____________O hurdat_atl AL031893 18.50 -67.00 HU 90 2 18.70 -66.50 HU 90 12 302
1893 NA NA 09:00:00 TS 18.88 -67.37 56 56 P____________P AL031893 18.74 -67.52 HU 92 2 19.16 -67.09 HU 92 12 303
1893 NA NA 12:00:00 TS 19.20 -67.87 95 hurdat_atl 79 76 O____________O hurdat_atl AL031893 19.00 -68.00 HU 95 2 19.60 -67.60 HU 95 11 306
1893 NA NA 15:00:00 TS 19.52 -68.31 84 84 P____________P AL031893 19.29 -68.47 HU 97 3 19.96 -67.99 HU 95 10 309
1893 NA NA 18:00:00 TS 19.83 -68.70 100 hurdat_atl 84 84 O____________O hurdat_atl AL031893 19.60 -68.90 HU 100 3 20.30 -68.30 HU 95 10 311
1893 NA NA 21:00:00 TS 20.14 -69.08 91 91 P____________P AL031893 19.89 -69.32 HU 100 3 20.65 -68.62 HU 95 9 313
1893 NA NA 1893-08-18 00:00:00 TS 20.47 -69.43 100 hurdat_atl 118 113 O____________O hurdat_atl AL031893 20.20 -69.70 HU 100 3 21.00 -68.90 HU 95 9 316
1893 NA NA 03:00:00 TS 20.80 -69.75 135 135 P____________P AL031893 20.53 -70.05 HU 102 3 21.36 -69.16 HU 95 9 320
1893 NA NA 06:00:00 TS 21.17 -70.07 105 hurdat_atl 165 165 O____________O hurdat_atl AL031893 20.90 -70.40 HU 105 3 21.70 -69.40 HU 95 10 321
1893 NA NA 09:00:00 TS 21.57 -70.41 202 201 P____________P AL031893 21.35 -70.79 HU 105 3 22.00 -69.65 HU 97 10 321
1893 NA NA 12:00:00 TS 21.97 -70.77 105 hurdat_atl 244 225 O____________O hurdat_atl AL031893 21.80 -71.20 HU 105 3 22.30 -69.90 MH 100 10 318
1893 NA NA 15:00:00 TS 22.32 -71.15 222 219 P____________P AL031893 22.16 -71.65 HU 105 3 22.64 -70.16 MH 100 10 315
1893 NA NA 18:00:00 TS 22.67 -71.53 105 hurdat_atl 228 221 O____________O hurdat_atl AL031893 22.50 -72.10 HU 105 3 23.00 -70.40 MH 100 10 316
1893 NA NA 21:00:00 TS 23.01 -71.87 230 230 P____________P AL031893 22.84 -72.50 HU 105 3 23.35 -70.61 MH 100 9 319
1893 NA NA 1893-08-19 00:00:00 TS 23.37 -72.20 105 hurdat_atl 259 256 O____________O hurdat_atl AL031893 23.20 -72.90 HU 105 3 23.70 -70.80 MH 100 10 319
1893 NA NA 03:00:00 TS 23.75 -72.57 282 282 P____________P AL031893 23.59 -73.34 HU 105 3 24.06 -71.01 MH 102 10 319
1893 NA NA 06:00:00 TS 24.13 -72.93 105 hurdat_atl 324 324 O____________O hurdat_atl AL031893 24.00 -73.80 HU 105 3 24.40 -71.20 MH 105 10 318
1893 NA NA 09:00:00 TS 24.47 -73.27 369 369 P____________P AL031893 24.39 -74.27 HU 105 3 24.64 -71.29 MH 105 10 320
1893 NA NA 12:00:00 TS 24.87 -73.60 105 hurdat_atl 415 393 O____________O hurdat_atl AL031893 24.80 -74.70 HU 105 3 25.00 -71.40 MH 105 11 326
1893 NA NA 15:00:00 TS 25.38 -73.94 395 380 P____________P AL031893 25.23 -75.10 HU 105 3 25.68 -71.63 MH 105 12 333
1893 NA NA 18:00:00 TS 25.97 -74.23 105 hurdat_atl 389 379 O____________O hurdat_atl AL031893 25.70 -75.40 HU 105 3 26.50 -71.90 MH 105 12 338
1893 NA NA 21:00:00 TS 26.53 -74.45 383 383 P____________P AL031893 26.18 -75.60 HU 105 3 27.25 -72.17 MH 105 12 344
1893 NA NA 1893-08-20 00:00:00 TS 27.13 -74.60 105 hurdat_atl 406 406 O____________O hurdat_atl AL031893 26.70 -75.70 HU 105 3 28.00 -72.40 MH 105 13 350
1893 NA NA 03:00:00 TS 27.77 -74.70 445 445 P____________P AL031893 27.28 -75.79 HU 105 3 28.75 -72.52 MH 105 13 355
1893 NA NA 06:00:00 TS 28.43 -74.73 105 hurdat_atl 492 492 O____________O hurdat_atl AL031893 27.90 -75.80 HU 105 3 29.50 -72.60 MH 105 958 13 360
1893 NA NA 09:00:00 TS 29.06 -74.72 553 553 P____________P AL031893 28.46 -75.69 HU 102 3 30.25 -72.76 MH 102 13 4
1893 NA NA 12:00:00 TS 29.73 -74.63 100 hurdat_atl 567 501 O____________O hurdat_atl AL031893 29.10 -75.50 HU 100 3 31.00 -72.90 MH 100 15 7
1893 NA NA 15:00:00 TS 30.51 -74.52 501 430 P____________P AL031893 29.90 -75.32 HU 97 3 31.75 -72.94 MH 97 17 10
1893 NA NA 18:00:00 TS 31.37 -74.30 95 hurdat_atl 421 362 O____________O hurdat_atl AL031893 30.80 -75.00 HU 95 2 32.50 -72.90 HU 95 18 16
1893 NA NA 21:00:00 TS 32.23 -73.93 368 326 P____________P AL031893 31.72 -74.47 HU 92 2 33.25 -72.84 HU 92 19 23
1893 NA NA 1893-08-21 00:00:00 TS 33.13 -73.43 90 hurdat_atl 333 303 O____________O hurdat_atl AL031893 32.70 -73.80 HU 90 2 34.00 -72.70 HU 90 20 25
1893 NA NA 03:00:00 TS 34.07 -72.89 302 294 P____________P AL031893 33.73 -73.09 HU 90 2 34.75 -72.49 HU 90 21 27
1893 NA NA 06:00:00 TS 35.03 -72.27 90 hurdat_atl 302 302 O____________O hurdat_atl AL031893 34.80 -72.30 HU 90 2 35.50 -72.20 HU 90 22 28
1893 NA NA 09:00:00 TS 36.01 -71.61 351 351 P____________P AL031893 35.87 -71.48 HU 90 2 36.29 -71.86 HU 90 23 30
1893 NA NA 12:00:00 TS 37.00 -70.87 90 hurdat_atl 396 387 O____________O hurdat_atl AL031893 37.00 -70.60 HU 90 2 37.00 -71.40 HU 90 23 32
1893 NA NA 15:00:00 TS 37.94 -70.08 387 315 P____________P AL031893 38.21 -69.64 HU 85 2 37.38 -70.96 HU 85 24 35
1893 NA NA 18:00:00 TS 39.00 -69.10 80 hurdat_atl 309 234 O____________O hurdat_atl AL031893 39.50 -68.60 HU 80 1 38.00 -70.10 HU 80 30 37
1893 NA NA 21:00:00 TS 40.34 -67.78 241 208 P____________P AL031893 40.84 -67.48 HU 75 1 39.33 -68.38 HU 75 35 37
1893 NA NA 1893-08-22 00:00:00 TS 41.80 -66.30 70 hurdat_atl 195 47 O____________O hurdat_atl AL031893 42.20 -66.30 HU 70 1 41.00 -66.30 HU 70 36 36
1893 NA NA 03:00:00 TS 43.21 -64.93 46 0 P____________P AL031893 43.50 -65.17 HU 65 1 42.63 -64.45 HU 65 35 36
1893 NA NA 06:00:00 MX 44.63 -63.43 60 hurdat_atl 0 0 O____________O hurdat_atl AL031893 44.80 -63.80 EX 60 -4 44.30 -62.70 TS 60 37 39
1893 NA NA 09:00:00 MX 46.11 -61.60 7 0 P____________P AL031893 46.15 -61.89 EX 55 -4 46.05 -61.02 TS 55 38 43
1893 NA NA 12:00:00 MX 47.43 -59.63 50 hurdat_atl 31 0 O____________O hurdat_atl AL031893 47.40 -59.70 EX 50 -4 47.50 -59.50 TS 50 35 49
1893 NA NA 15:00:00 MX 48.43 -57.66 0 0 P____________P AL031893 48.50 -57.40 EX 50 -4 48.30 -58.18 TS 50 31 55
1893 NA NA 18:00:00 ET 49.20 -55.87 50 hurdat_atl 0 0 O____________O hurdat_atl AL031893 49.40 -55.30 EX 50 -4 48.80 -57.00 EX 50 25 56
1893 NA NA 21:00:00 ET 49.87 -54.46 44 44 P____________P AL031893 50.15 -53.75 EX 50 -4 49.30 -55.87 EX 50 21 54
1893 NA NA 1893-08-23 00:00:00 ET 50.47 -53.17 50 hurdat_atl 129 129 O____________O hurdat_atl AL031893 50.70 -52.50 EX 50 -4 50.00 -54.50 EX 50 23 55
1893 NA NA 03:00:00 ET 51.18 -51.56 250 250 P____________P AL031893 51.07 -51.19 EX 50 -4 51.39 -52.32 EX 50 23 58
1893 NA NA 06:00:00 ET 51.70 -50.03 50 hurdat_atl 362 362 O____________O hurdat_atl AL031893 51.30 -50.00 EX 50 -4 52.50 -50.10 EX 50 17 67
1893 NA NA 09:00:00 ET 51.85 -48.97 420 420 P____________P AL031893 51.53 -49.03 EX 50 -4 52.49 -48.85 EX 50 13 88
1893 NA NA 12:00:00 ET 51.73 -48.00 50 hurdat_atl 469 469 O____________O hurdat_atl AL031893 51.60 -48.00 EX 50 -4 52.00 -48.00 EX 50 14 104
1893 NA NA 15:00:00 ET 51.49 -46.69 537 537 P____________P AL031893 51.43 -46.55 EX 50 -4 51.61 -46.99 EX 50 17 110
1893 NA NA 18:00:00 ET 51.13 -45.40 50 hurdat_atl 607 607 O____________O hurdat_atl AL031893 51.10 -45.10 EX 50 -4 51.20 -46.00 EX 50 16 115
1893 NA NA 21:00:00 ET 50.80 -44.32 673 673 P____________P AL031893 50.77 -43.98 EX 50 -4 50.85 -45.00 EX 50 14 119
1893 NA NA 1893-08-24 00:00:00 ET 50.43 -43.40 50 hurdat_atl 721 721 O____________O hurdat_atl AL031893 50.40 -43.10 EX 50 -4 50.50 -44.00 EX 50 13 126
1893 NA NA 03:00:00 ET 50.02 -42.62 768 768 P____________P AL031893 49.98 -42.44 EX 50 -4 50.10 -43.00 EX 50 13 129
1893 NA NA 06:00:00 ET 49.63 -41.87 50 hurdat_atl 810 810 O____________O hurdat_atl AL031893 49.60 -41.80 EX 50 -4 49.70 -42.00 EX 50 13 124
1893 NA NA 09:00:00 ET 49.28 -40.91 878 878 P____________P AL031893 49.28 -40.90 EX 50 -4 49.27 -40.94 EX 50 13 115
1893 NA NA 12:00:00 ET 49.07 -40.00 50 hurdat_atl 942 942 O____________O hurdat_atl AL031893 49.10 -40.00 EX 50 -4 49.00 -40.00 EX 50 11 100
1893 NA NA 15:00:00 ET 49.09 -39.32 993 993 P____________P AL031893 49.10 -39.34 EX 50 -4 49.08 -39.29 EX 50 9 79
1893 NA NA 18:00:00 ET 49.23 -38.70 50 hurdat_atl 1036 1036 O____________O hurdat_atl AL031893 49.20 -38.70 EX 50 -4 49.30 -38.70 EX 50 9 75
1893 NA NA 21:00:00 ET 49.32 -37.96 1087 1087 P____________P AL031893 49.29 -37.89 EX 50 -4 49.40 -38.10 EX 50 10 78
1893 NA NA 1893-08-25 00:00:00 ET 49.43 -37.23 50 hurdat_atl 1145 1145 O____________O hurdat_atl AL031893 49.40 -37.10 EX 50 -4 49.50 -37.50 EX 50 9 74
1893 NA NA 03:00:00 ET 49.58 -36.62 1189 1189 P____________P AL031893 49.54 -36.50 EX 47 -4 49.65 -36.85 EX 47 8 68
1893 NA NA 06:00:00 ET 49.73 -36.07 45 hurdat_atl 1225 1225 O____________O hurdat_atl AL031893 49.70 -36.00 EX 45 -4 49.80 -36.20 EX 45 8 69
1893 NA NA 09:00:00 ET 49.84 -35.53 1237 1226 P____________P AL031893 49.83 -35.50 EX 42 -4 49.88 -35.58 EX 42 7 69
1893 NA NA 12:00:00 ET 50.00 -35.00 40 hurdat_atl 1229 1216 O____________O hurdat_atl AL031893 50.00 -35.00 EX 40 -4 50.00 -35.00 EX 40 8 58
1893 NA NA 15:00:00 ET 50.27 -34.46 1211 1195 P____________P AL031893 50.27 -34.46 EX 37 -4 50.26 -34.44 EX 37 9 50
1893 NA NA 18:00:00 ET 50.60 -33.90 35 hurdat_atl 1198 O____________O hurdat_atl AL031893 50.60 -33.90 EX 35 -4 50.60 -33.90 EX 35 10 47